createdAt,value
2023-05-23T00:00:07.674Z,8.1500
2023-05-23T00:01:15.562Z,8.5571
2023-05-23T00:02:23.694Z,8.1143
2023-05-23T00:03:31.715Z,8.4786
2023-05-23T00:04:39.889Z,8.3429
2023-05-23T00:05:47.911Z,8.0500
2023-05-23T00:06:56.075Z,8.1214
2023-05-23T00:08:03.752Z,8.1857
2023-05-23T00:09:11.996Z,8.1857
2023-05-23T00:10:19.874Z,8.2714
2023-05-23T00:11:28.308Z,8.5571
2023-05-23T00:12:36.148Z,8.6429
2023-05-23T00:13:44.212Z,8.4143
2023-05-23T00:14:52.235Z,8.5071
2023-05-23T00:16:00.478Z,8.4500
2023-05-23T00:17:08.504Z,8.7786
2023-05-23T00:18:16.465Z,8.4857
2023-05-23T00:19:24.414Z,8.3000
2023-05-23T00:20:32.550Z,8.2929
2023-05-23T00:21:40.714Z,8.5000
2023-05-23T00:22:48.729Z,8.4071
2023-05-23T00:23:56.741Z,8.4571
2023-05-23T00:25:04.920Z,7.8429
2023-05-23T00:26:12.888Z,7.8429
2023-05-23T00:27:20.909Z,7.6857
2023-05-23T00:28:29.020Z,7.9929
2023-05-23T00:29:37.109Z,7.8714
2023-05-23T00:30:45.065Z,8.2143
2023-05-23T00:31:53.311Z,7.5643
2023-05-23T00:33:01.506Z,7.8500
2023-05-23T00:34:09.249Z,7.7286
2023-05-23T00:35:17.398Z,7.8571
2023-05-23T00:36:25.392Z,7.4429
2023-05-23T00:37:33.610Z,7.3929
2023-05-23T00:38:41.731Z,7.6214
2023-05-23T00:39:49.675Z,7.4571
2023-05-23T00:40:57.735Z,7.2500
2023-05-23T00:42:05.727Z,7.2000
2023-05-23T00:43:14.003Z,7.3571
2023-05-23T00:44:22.560Z,7.1429
2023-05-23T00:45:29.993Z,7.0929
2023-05-23T00:46:38.339Z,7.3429
2023-05-23T00:47:46.151Z,7.2214
2023-05-23T00:48:54.192Z,7.3429
2023-05-23T00:50:02.241Z,7.0000
2023-05-23T00:51:10.445Z,7.0214
2023-05-23T00:52:18.410Z,7.2500
2023-05-23T00:53:26.674Z,7.4429
2023-05-23T00:54:34.460Z,7.1071
2023-05-23T00:55:42.689Z,7.2143
2023-05-23T00:56:50.641Z,7.4214
2023-05-23T00:57:58.692Z,7.3214
2023-05-23T00:59:06.623Z,7.4786
2023-05-23T01:00:14.775Z,7.5714
2023-05-23T01:01:23.044Z,7.0643
2023-05-23T01:02:30.977Z,7.0071
2023-05-23T01:03:39.153Z,6.9929
2023-05-23T01:04:46.882Z,6.9143
2023-05-23T01:05:55.187Z,7.3929
2023-05-23T01:07:03.216Z,7.5714
2023-05-23T01:08:11.243Z,7.4429
2023-05-23T01:09:19.300Z,7.4500
2023-05-23T01:10:27.451Z,7.6714
2023-05-23T01:11:35.438Z,7.3643
2023-05-23T01:12:43.486Z,7.3429
2023-05-23T01:13:51.503Z,7.1857
2023-05-23T01:14:59.567Z,7.1214
2023-05-23T01:16:07.655Z,7.0714
2023-05-23T01:17:15.649Z,7.2786
2023-05-23T01:18:23.766Z,7.2214
2023-05-23T01:19:31.683Z,7.1714
2023-05-23T01:20:39.855Z,7.0143
2023-05-23T01:21:47.936Z,7.0214
2023-05-23T01:22:55.895Z,7.2071
2023-05-23T01:24:04.051Z,6.7929
2023-05-23T01:25:12.057Z,7.1429
2023-05-23T01:26:20.323Z,7.2786
2023-05-23T01:27:28.222Z,7.4143
2023-05-23T01:28:36.362Z,7.1786
2023-05-23T01:29:44.391Z,7.2000
2023-05-23T01:30:52.442Z,7.0143
2023-05-23T01:32:00.497Z,7.2429
2023-05-23T01:33:08.592Z,7.5500
2023-05-23T01:34:16.478Z,7.4500
2023-05-23T01:35:24.688Z,7.5143
2023-05-23T01:36:32.715Z,7.5929
2023-05-23T01:37:40.761Z,7.7714
2023-05-23T01:38:49.036Z,7.5500
2023-05-23T01:39:56.774Z,7.4786
2023-05-23T01:41:05.046Z,7.2929
2023-05-23T01:42:13.072Z,7.4357
2023-05-23T01:43:21.051Z,7.0786
2023-05-23T01:44:29.268Z,6.6071
2023-05-23T01:45:37.207Z,7.0500
2023-05-23T01:46:45.240Z,6.9071
2023-05-23T01:47:53.379Z,7.3143
2023-05-23T01:49:01.522Z,6.9286
2023-05-23T01:50:09.392Z,7.1714
2023-05-23T01:51:17.354Z,7.2214
2023-05-23T01:52:25.534Z,7.3000
2023-05-23T01:53:33.603Z,7.3357
2023-05-23T01:54:41.941Z,7.3000
2023-05-23T01:55:49.724Z,7.2143
2023-05-23T01:56:57.699Z,7.2143
2023-05-23T01:58:05.798Z,7.0286
2023-05-23T01:59:13.864Z,7.2571
2023-05-23T02:00:22.005Z,7.4286
2023-05-23T02:01:30.048Z,7.4357
2023-05-23T02:02:38.230Z,7.1714
2023-05-23T02:03:46.136Z,7.3857
2023-05-23T02:04:54.248Z,7.6786
2023-05-23T02:06:02.310Z,7.5786
2023-05-23T02:07:10.287Z,7.7214
2023-05-23T02:08:18.355Z,7.4000
2023-05-23T02:09:26.523Z,7.5929
2023-05-23T02:10:34.571Z,7.6786
2023-05-23T02:11:42.546Z,7.4000
2023-05-23T02:12:50.714Z,7.1929
2023-05-23T02:13:58.654Z,7.3786
2023-05-23T02:15:06.712Z,7.2857
2023-05-23T02:16:14.969Z,7.5071
2023-05-23T02:17:22.897Z,8.0214
2023-05-23T02:18:30.915Z,8.4286
2023-05-23T02:19:38.906Z,8.1643
2023-05-23T02:20:47.030Z,8.0143
2023-05-23T02:21:55.136Z,7.2929
2023-05-23T02:23:03.157Z,7.4071
2023-05-23T02:24:11.453Z,7.5857
2023-05-23T02:25:19.326Z,7.2857
2023-05-23T02:26:27.367Z,7.1071
2023-05-23T02:27:35.419Z,7.7357
2023-05-23T02:28:43.391Z,7.5857
2023-05-23T02:29:51.506Z,7.6786
2023-05-23T02:30:59.806Z,7.9571
2023-05-23T02:32:07.663Z,8.1071
2023-05-23T02:33:15.764Z,8.1857
2023-05-23T02:34:23.889Z,8.4214
2023-05-23T02:35:31.822Z,8.7929
2023-05-23T02:36:39.925Z,9.2071
2023-05-23T02:37:47.921Z,9.2429
2023-05-23T02:38:56.211Z,8.9857
2023-05-23T02:40:03.924Z,8.9429
2023-05-23T02:41:12.187Z,8.3714
2023-05-23T02:42:20.208Z,8.3214
2023-05-23T02:43:28.091Z,7.7357
2023-05-23T02:44:36.372Z,8.0786
2023-05-23T02:45:44.389Z,7.2357
2023-05-23T02:46:52.629Z,7.9929
2023-05-23T02:48:00.458Z,8.3857
2023-05-23T02:49:08.546Z,8.5214
2023-05-23T02:50:16.552Z,8.2214
2023-05-23T02:51:24.531Z,8.5429
2023-05-23T02:52:32.722Z,8.6000
2023-05-23T02:53:40.902Z,8.4571
2023-05-23T02:54:48.664Z,8.2571
2023-05-23T02:55:56.867Z,8.1286
2023-05-23T02:57:04.969Z,8.1214
2023-05-23T02:58:12.969Z,7.7357
2023-05-23T02:59:21.050Z,7.7071
2023-05-23T03:00:29.155Z,7.9571
2023-05-23T03:01:37.138Z,7.9214
2023-05-23T03:02:45.472Z,8.1071
2023-05-23T03:03:53.256Z,7.8071
2023-05-23T03:05:01.308Z,8.2500
2023-05-23T03:06:09.256Z,8.8714
2023-05-23T03:07:27.486Z,8.3714
2023-05-23T03:08:30.351Z,8.4571
2023-05-23T03:09:38.394Z,8.7786
2023-05-23T03:10:46.464Z,8.5286
2023-05-23T03:11:54.643Z,8.8714
2023-05-23T03:13:02.635Z,9.1000
2023-05-23T03:14:10.634Z,9.1857
2023-05-23T03:15:18.712Z,9.2429
2023-05-23T03:16:26.862Z,9.0286
2023-05-23T03:17:34.697Z,9.2214
2023-05-23T03:18:42.925Z,9.3929
2023-05-23T03:19:50.955Z,9.3643
2023-05-23T03:20:59.009Z,9.5071
2023-05-23T03:22:07.207Z,9.9143
2023-05-23T03:23:15.146Z,9.8500
2023-05-23T03:24:23.185Z,9.7357
2023-05-23T03:25:31.263Z,9.6643
2023-05-23T03:26:39.285Z,9.7500
2023-05-23T03:27:47.321Z,9.3214
2023-05-23T03:28:55.463Z,9.1571
2023-05-23T03:30:03.704Z,8.7500
2023-05-23T03:31:11.601Z,8.5929
2023-05-23T03:32:19.660Z,8.7000
2023-05-23T03:33:27.631Z,9.0071
2023-05-23T03:34:35.714Z,9.4071
2023-05-23T03:35:43.734Z,9.3357
2023-05-23T03:36:51.808Z,9.1857
2023-05-23T03:37:59.701Z,9.3429
2023-05-23T03:39:07.968Z,9.3286
2023-05-23T03:40:16.019Z,9.3786
2023-05-23T03:41:24.022Z,9.6857
2023-05-23T03:42:32.159Z,9.4286
2023-05-23T03:43:40.023Z,8.9357
2023-05-23T03:44:48.447Z,8.8143
2023-05-23T03:45:56.369Z,8.8643
2023-05-23T03:47:04.366Z,8.5071
2023-05-23T03:48:12.474Z,8.5500
2023-05-23T03:49:20.289Z,9.1571
2023-05-23T03:50:28.731Z,9.0786
2023-05-23T03:51:36.551Z,8.5714
2023-05-23T03:52:44.491Z,9.0643
2023-05-23T03:53:52.684Z,9.0357
2023-05-23T03:55:00.632Z,9.0643
2023-05-23T03:56:08.777Z,8.3714
2023-05-23T03:57:16.851Z,9.2000
2023-05-23T03:58:24.757Z,9.0357
2023-05-23T03:59:32.965Z,8.4500
2023-05-23T04:00:41.356Z,8.5000
2023-05-23T04:01:49.078Z,8.6786
2023-05-23T04:02:57.198Z,8.2143
2023-05-23T04:04:05.377Z,8.2143
2023-05-23T04:05:13.482Z,8.7714
2023-05-23T04:06:21.309Z,8.8500
2023-05-23T04:07:29.409Z,9.2071
2023-05-23T04:08:37.515Z,8.7643
2023-05-23T04:09:45.681Z,8.2929
2023-05-23T04:10:53.564Z,8.6857
2023-05-23T04:12:01.608Z,8.3786
2023-05-23T04:13:09.700Z,8.4429
2023-05-23T04:14:18.027Z,8.5429
2023-05-23T04:15:25.942Z,8.8071
2023-05-23T04:16:33.949Z,9.0286
2023-05-23T04:17:41.917Z,8.9000
2023-05-23T04:18:50.106Z,8.7286
2023-05-23T04:19:58.091Z,8.9786
2023-05-23T04:21:06.090Z,9.0214
2023-05-23T04:22:14.107Z,9.1429
2023-05-23T04:23:22.215Z,9.1429
2023-05-23T04:24:30.254Z,9.5643
2023-05-23T04:25:38.396Z,9.2000
2023-05-23T04:26:46.598Z,9.2286
2023-05-23T04:27:54.418Z,9.1857
2023-05-23T04:29:02.581Z,9.1714
2023-05-23T04:30:10.517Z,9.4857
2023-05-23T04:31:18.683Z,9.4786
2023-05-23T04:32:26.554Z,8.8357
2023-05-23T04:33:35.140Z,9.5786
2023-05-23T04:34:42.762Z,9.6714
2023-05-23T04:35:50.965Z,8.8143
2023-05-23T04:36:58.971Z,9.2643
2023-05-23T04:38:06.960Z,9.3214
2023-05-23T04:39:14.938Z,9.0786
2023-05-23T04:40:23.114Z,9.1214
2023-05-23T04:41:31.287Z,9.2071
2023-05-23T04:42:39.228Z,9.3286
2023-05-23T04:43:47.286Z,9.2500
2023-05-23T04:44:55.216Z,8.8214
2023-05-23T04:46:03.414Z,8.6286
2023-05-23T04:47:11.563Z,9.0357
2023-05-23T04:48:19.717Z,9.4429
2023-05-23T04:49:27.578Z,9.1786
2023-05-23T04:50:35.496Z,9.0000
2023-05-23T04:51:43.836Z,9.2571
2023-05-23T04:52:51.761Z,9.3786
2023-05-23T04:53:59.792Z,9.4786
2023-05-23T04:55:07.908Z,9.2357
2023-05-23T04:56:15.827Z,9.0143
2023-05-23T04:57:23.996Z,9.3786
2023-05-23T04:58:31.918Z,9.4143
2023-05-23T04:59:40.151Z,9.3857
2023-05-23T05:00:48.224Z,9.1357
2023-05-23T05:01:56.297Z,9.2071
2023-05-23T05:03:04.313Z,9.2857
2023-05-23T05:04:12.402Z,9.8071
2023-05-23T05:05:20.408Z,9.7357
2023-05-23T05:06:28.557Z,9.2786
2023-05-23T05:07:36.634Z,9.3429
2023-05-23T05:08:44.583Z,9.3143
2023-05-23T05:09:52.709Z,9.1500
2023-05-23T05:11:00.612Z,9.4071
2023-05-23T05:12:08.830Z,9.1714
2023-05-23T05:13:16.882Z,9.4857
2023-05-23T05:14:24.874Z,9.1000
2023-05-23T05:15:32.929Z,9.6929
2023-05-23T05:16:40.912Z,9.6643
2023-05-23T05:17:49.960Z,9.3929
2023-05-23T05:18:57.009Z,9.6286
2023-05-23T05:20:05.197Z,9.7214
2023-05-23T05:21:13.365Z,9.5143
2023-05-23T05:22:21.300Z,9.5929
2023-05-23T05:23:29.421Z,9.4571
2023-05-23T05:24:37.259Z,9.3643
2023-05-23T05:25:45.436Z,9.3429
2023-05-23T05:26:53.500Z,9.6071
2023-05-23T05:28:01.478Z,9.0357
2023-05-23T05:29:09.968Z,9.6643
2023-05-23T05:30:17.551Z,9.4857
2023-05-23T05:31:25.816Z,9.9429
2023-05-23T05:32:33.890Z,9.8000
2023-05-23T05:33:41.842Z,9.9286
2023-05-23T05:34:49.980Z,10.7643
2023-05-23T05:35:57.946Z,10.1429
2023-05-23T05:37:06.045Z,10.7643
2023-05-23T05:38:14.534Z,10.4071
2023-05-23T05:39:22.357Z,9.9857
2023-05-23T05:40:30.188Z,9.6571
2023-05-23T05:41:38.279Z,16.2143
2023-05-23T05:42:46.381Z,15.2143
2023-05-23T05:43:54.384Z,14.5429
2023-05-23T05:45:02.318Z,13.5357
2023-05-23T05:46:10.535Z,15.1000
2023-05-23T05:47:18.722Z,14.7071
2023-05-23T05:48:26.722Z,12.4143
2023-05-23T05:49:34.679Z,10.9500
2023-05-23T05:50:42.727Z,10.1857
2023-05-23T05:51:50.827Z,9.4214
2023-05-23T05:52:58.887Z,9.9214
2023-05-23T05:54:06.918Z,9.7929
2023-05-23T05:55:15.016Z,10.3714
2023-05-23T05:56:23.145Z,18.7071
2023-05-23T05:57:31.304Z,25.4571
2023-05-23T05:58:39.146Z,36.1429
2023-05-23T05:59:47.049Z,31.6214
2023-05-23T06:00:55.236Z,27.5071
2023-05-23T06:02:03.172Z,27.3429
2023-05-23T06:03:11.513Z,27.4500
2023-05-23T06:04:19.476Z,21.5500
2023-05-23T06:05:27.481Z,15.5357
2023-05-23T06:06:35.732Z,12.5286
2023-05-23T06:07:43.572Z,11.2214
2023-05-23T06:08:51.637Z,10.6429
2023-05-23T06:09:59.808Z,10.4143
2023-05-23T06:11:07.870Z,10.8071
2023-05-23T06:12:15.791Z,10.7143
2023-05-23T06:13:23.941Z,10.6143
2023-05-23T06:14:32.010Z,10.6429
2023-05-23T06:15:39.983Z,11.0000
2023-05-23T06:16:48.131Z,11.2857
2023-05-23T06:17:56.259Z,10.3786
2023-05-23T06:19:04.248Z,10.5929
2023-05-23T06:20:12.248Z,10.8714
2023-05-23T06:21:20.297Z,10.9357
2023-05-23T06:22:28.169Z,10.5857
2023-05-23T06:23:36.449Z,10.6857
2023-05-23T06:24:44.460Z,10.6714
2023-05-23T06:25:52.628Z,10.3071
2023-05-23T06:27:00.628Z,10.6429
2023-05-23T06:28:08.631Z,10.8500
2023-05-23T06:29:16.725Z,10.1643
2023-05-23T06:30:24.761Z,11.8786
2023-05-23T06:31:32.818Z,11.7071
2023-05-23T06:32:40.953Z,15.5500
2023-05-23T06:33:48.828Z,17.0643
2023-05-23T06:34:57.026Z,14.2643
2023-05-23T06:36:05.048Z,28.6714
2023-05-23T06:37:13.103Z,41.9643
2023-05-23T06:38:21.189Z,38.4000
2023-05-23T06:39:29.278Z,24.0786
2023-05-23T06:40:37.266Z,15.1357
2023-05-23T06:41:45.351Z,13.0714
2023-05-23T06:42:53.428Z,11.5357
2023-05-23T06:44:01.467Z,11.2214
2023-05-23T06:45:09.534Z,18.3143
2023-05-23T06:46:17.490Z,26.0071
2023-05-23T06:47:25.867Z,31.5143
2023-05-23T06:48:33.571Z,26.9286
2023-05-23T06:49:41.873Z,15.1286
2023-05-23T06:50:49.823Z,12.1214
2023-05-23T06:51:57.913Z,11.0143
2023-05-23T06:53:06.047Z,10.4357
2023-05-23T06:54:13.892Z,9.9571
2023-05-23T06:55:22.086Z,9.6714
2023-05-23T06:56:30.133Z,9.9429
2023-05-23T06:57:38.170Z,9.9143
2023-05-23T06:58:47.249Z,10.1571
2023-05-23T06:59:54.201Z,10.3000
2023-05-23T07:01:02.397Z,10.1357
2023-05-23T07:02:10.435Z,10.4429
2023-05-23T07:03:18.522Z,10.2429
2023-05-23T07:04:26.560Z,9.7571
2023-05-23T07:05:34.708Z,9.8857
2023-05-23T07:06:42.847Z,10.0857
2023-05-23T07:07:50.740Z,9.8071
2023-05-23T07:08:58.761Z,9.9857
2023-05-23T07:10:06.876Z,10.5786
2023-05-23T07:11:15.018Z,11.2000
2023-05-23T07:12:23.000Z,10.3786
2023-05-23T07:13:31.075Z,10.4071
2023-05-23T07:14:39.248Z,10.4929
2023-05-23T07:15:47.329Z,10.6714
2023-05-23T07:16:55.310Z,11.1286
2023-05-23T07:18:03.289Z,11.3143
2023-05-23T07:19:11.401Z,11.2643
2023-05-23T07:20:19.401Z,10.9929
2023-05-23T07:21:27.512Z,11.3214
2023-05-23T07:22:35.381Z,11.4357
2023-05-23T07:23:43.456Z,11.3214
2023-05-23T07:24:51.629Z,11.4357
2023-05-23T07:26:02.963Z,11.2714
2023-05-23T07:27:12.631Z,10.6733
2023-05-23T07:28:20.675Z,11.1643
2023-05-23T07:29:28.767Z,10.9643
2023-05-23T07:30:36.873Z,10.7429
2023-05-23T07:31:44.949Z,10.8571
2023-05-23T07:32:53.077Z,10.7000
2023-05-23T07:34:01.018Z,10.7571
2023-05-23T07:35:09.041Z,10.6857
2023-05-23T07:36:17.141Z,11.2143
2023-05-23T07:37:25.202Z,10.6000
2023-05-23T07:38:33.101Z,10.6286
2023-05-23T07:39:41.440Z,10.7143
2023-05-23T07:40:58.844Z,10.8929
2023-05-23T07:42:02.470Z,10.5857
2023-05-23T07:43:10.335Z,11.0143
2023-05-23T07:44:18.388Z,10.8286
2023-05-23T07:45:26.429Z,10.7857
2023-05-23T07:46:34.389Z,10.8000
2023-05-23T07:47:42.828Z,11.6714
2023-05-23T07:48:50.635Z,11.4786
2023-05-23T07:49:58.646Z,11.7357
2023-05-23T07:51:06.816Z,11.5500
2023-05-23T07:52:14.919Z,11.7786
2023-05-23T07:53:22.930Z,12.0786
2023-05-23T07:54:30.938Z,12.1071
2023-05-23T07:55:38.989Z,12.2357
2023-05-23T07:56:47.175Z,12.1571
2023-05-23T07:57:55.103Z,11.6286
2023-05-23T07:59:03.185Z,11.8429
2023-05-23T08:00:11.306Z,11.9643
2023-05-23T08:01:19.325Z,11.1714
2023-05-23T08:02:27.420Z,11.0714
2023-05-23T08:03:35.374Z,11.9714
2023-05-23T08:04:43.492Z,11.9929
2023-05-23T08:05:51.542Z,11.9929
2023-05-23T08:07:05.485Z,11.5000
2023-05-23T08:08:12.546Z,11.4000
2023-05-23T08:09:20.754Z,12.0286
2023-05-23T08:10:28.479Z,12.2286
2023-05-23T08:11:36.798Z,12.6643
2023-05-23T08:12:44.713Z,28.7857
2023-05-23T08:13:52.976Z,46.7214
2023-05-23T08:15:00.863Z,45.4643
2023-05-23T08:16:08.944Z,25.3357
2023-05-23T08:17:17.050Z,19.7500
2023-05-23T08:18:25.045Z,15.1786
2023-05-23T08:19:33.290Z,13.2214
2023-05-23T08:20:41.390Z,31.7929
2023-05-23T08:21:49.070Z,45.3714
2023-05-23T08:22:57.534Z,43.1786
2023-05-23T08:24:05.343Z,44.3786
2023-05-23T08:25:13.375Z,40.0071
2023-05-23T08:26:21.490Z,25.3857
2023-05-23T08:27:29.379Z,17.0214
2023-05-23T08:28:37.581Z,15.3143
2023-05-23T08:29:45.668Z,14.2786
2023-05-23T08:30:53.714Z,14.9357
2023-05-23T08:32:01.830Z,15.4929
2023-05-23T08:33:09.691Z,18.5286
2023-05-23T08:34:17.893Z,37.6571
2023-05-23T08:35:25.939Z,34.1857
2023-05-23T08:36:33.986Z,19.8714
2023-05-23T08:37:42.238Z,15.7786
2023-05-23T08:38:50.010Z,18.1857
2023-05-23T08:39:58.170Z,18.6429
2023-05-23T08:41:06.196Z,15.5214
2023-05-23T08:42:14.614Z,17.2357
2023-05-23T08:43:22.390Z,27.8786
2023-05-23T08:44:30.476Z,40.9071
2023-05-23T08:45:38.509Z,48.6357
2023-05-23T08:46:46.704Z,39.3000
2023-05-23T08:47:54.750Z,19.5714
2023-05-23T08:49:02.785Z,14.3357
2023-05-23T08:50:10.987Z,13.7286
2023-05-23T08:51:18.907Z,13.6714
2023-05-23T08:52:27.009Z,12.6857
2023-05-23T08:53:34.824Z,12.7071
2023-05-23T08:54:43.040Z,12.5429
2023-05-23T08:55:51.113Z,12.3857
2023-05-23T08:56:59.008Z,12.1429
2023-05-23T08:58:07.215Z,12.0357
2023-05-23T08:59:15.140Z,12.6214
2023-05-23T09:00:23.435Z,12.4000
2023-05-23T09:01:31.642Z,12.6786
2023-05-23T09:02:39.494Z,13.1643
2023-05-23T09:03:47.486Z,16.7214
2023-05-23T09:04:55.431Z,15.5214
2023-05-23T09:06:03.733Z,19.5071
2023-05-23T09:07:11.929Z,21.9571
2023-05-23T09:08:19.752Z,16.7000
2023-05-23T09:09:27.794Z,13.8071
2023-05-23T09:10:35.924Z,13.0929
2023-05-23T09:11:43.936Z,13.0357
2023-05-23T09:12:51.975Z,13.9214
2023-05-23T09:13:59.934Z,13.2143
2023-05-23T09:15:08.107Z,14.6857
2023-05-23T09:16:16.052Z,24.9857
2023-05-23T09:17:24.383Z,30.3857
2023-05-23T09:18:32.332Z,26.6000
2023-05-23T09:19:40.413Z,26.5071
2023-05-23T09:20:48.429Z,17.2500
2023-05-23T09:21:56.487Z,17.1714
2023-05-23T09:23:04.552Z,15.9286
2023-05-23T09:24:12.847Z,16.4286
2023-05-23T09:25:20.507Z,16.4214
2023-05-23T09:26:28.750Z,36.7000
2023-05-23T09:27:36.770Z,22.9286
2023-05-23T09:28:44.756Z,16.7643
2023-05-23T09:29:52.902Z,13.8714
2023-05-23T09:31:01.068Z,12.2429
2023-05-23T09:32:09.300Z,13.2857
2023-05-23T09:33:17.183Z,18.1286
2023-05-23T09:34:25.142Z,19.6786
2023-05-23T09:35:33.177Z,15.7357
2023-05-23T09:36:41.157Z,15.2143
2023-05-23T09:37:49.333Z,21.5500
2023-05-23T09:38:57.415Z,17.6286
2023-05-23T09:40:05.564Z,14.0214
2023-05-23T09:41:13.496Z,13.0857
2023-05-23T09:42:21.437Z,12.3571
2023-05-23T09:43:29.747Z,12.5500
2023-05-23T09:44:37.698Z,12.4857
2023-05-23T09:45:45.796Z,12.1857
2023-05-23T09:46:53.963Z,12.6143
2023-05-23T09:48:01.895Z,12.5571
2023-05-23T09:49:10.088Z,12.6071
2023-05-23T09:50:18.048Z,12.7643
2023-05-23T09:51:26.046Z,12.3857
2023-05-23T09:52:34.076Z,12.7143
2023-05-23T09:53:42.273Z,12.5857
2023-05-23T09:54:50.096Z,12.3786
2023-05-23T09:55:58.259Z,11.9571
2023-05-23T09:57:07.181Z,12.3714
2023-05-23T09:58:14.427Z,11.8286
2023-05-23T09:59:22.517Z,11.7286
2023-05-23T10:00:30.391Z,11.7500
2023-05-23T10:01:38.812Z,11.8214
2023-05-23T10:02:46.607Z,10.8357
2023-05-23T10:03:55.567Z,11.3286
2023-05-23T10:05:02.807Z,10.8071
2023-05-23T10:06:10.701Z,10.6857
2023-05-23T10:07:18.908Z,10.5000
2023-05-23T10:08:26.807Z,10.2929
2023-05-23T10:09:35.264Z,10.6929
2023-05-23T10:10:43.245Z,10.3500
2023-05-23T10:11:51.147Z,10.8643
2023-05-23T10:12:59.254Z,10.3357
2023-05-23T10:14:07.237Z,9.7786
2023-05-23T10:15:15.397Z,9.9357
2023-05-23T10:16:23.424Z,9.5500
2023-05-23T10:17:31.488Z,9.5071
2023-05-23T10:18:39.729Z,9.0857
2023-05-23T10:19:47.601Z,9.3643
2023-05-23T10:20:55.806Z,9.8000
2023-05-23T10:22:03.752Z,9.5143
2023-05-23T10:23:11.907Z,9.8571
2023-05-23T10:24:19.904Z,9.6643
2023-05-23T10:25:27.932Z,9.7000
2023-05-23T10:26:35.909Z,9.2643
2023-05-23T10:27:44.311Z,9.3714
2023-05-23T10:28:52.235Z,9.4429
2023-05-23T10:30:00.221Z,9.4643
2023-05-23T10:31:08.325Z,9.7357
2023-05-23T10:32:16.404Z,10.3000
2023-05-23T10:33:24.379Z,9.6786
2023-05-23T10:34:32.355Z,9.4071
2023-05-23T10:35:40.578Z,9.2857
2023-05-23T10:36:48.631Z,9.2643
2023-05-23T10:37:56.519Z,9.1857
2023-05-23T10:39:04.716Z,9.3143
2023-05-23T10:40:12.659Z,9.0929
2023-05-23T10:41:20.833Z,9.0643
2023-05-23T10:42:28.971Z,9.3286
2023-05-23T10:43:36.864Z,9.3357
2023-05-23T10:44:45.132Z,9.1000
2023-05-23T10:45:53.002Z,8.8857
2023-05-23T10:47:01.273Z,8.6357
2023-05-23T10:48:09.283Z,9.7357
2023-05-23T10:49:17.300Z,9.7214
2023-05-23T10:50:25.371Z,9.7214
2023-05-23T10:51:33.454Z,9.9000
2023-05-23T10:52:41.554Z,9.9071
2023-05-23T10:53:49.579Z,9.5071
2023-05-23T10:54:57.676Z,9.4714
2023-05-23T10:56:05.747Z,9.7857
2023-05-23T10:57:13.760Z,9.6929
2023-05-23T10:58:21.762Z,9.9000
2023-05-23T10:59:29.964Z,9.5143
2023-05-23T11:00:37.987Z,9.7786
2023-05-23T11:01:46.006Z,9.6071
2023-05-23T11:02:54.155Z,9.4857
2023-05-23T11:04:02.306Z,10.4357
2023-05-23T11:05:10.194Z,10.7643
2023-05-23T11:06:18.254Z,10.8857
2023-05-23T11:07:26.499Z,10.8357
2023-05-23T11:08:46.715Z,9.8500
2023-05-23T11:09:47.277Z,28.9714
2023-05-23T11:10:55.330Z,48.0500
2023-05-23T11:12:03.439Z,20.2357
2023-05-23T11:13:11.634Z,16.7286
2023-05-23T11:14:19.845Z,9.7786
2023-05-23T11:15:27.584Z,9.6286
2023-05-23T11:16:35.669Z,9.5357
2023-05-23T11:17:43.917Z,9.6571
2023-05-23T11:18:51.747Z,11.2571
2023-05-23T11:19:59.889Z,14.7071
2023-05-23T11:21:07.936Z,26.9786
2023-05-23T11:22:16.061Z,38.3786
2023-05-23T11:23:24.083Z,52.9500
2023-05-23T11:24:32.205Z,33.2857
2023-05-23T11:25:40.290Z,12.7714
2023-05-23T11:26:48.179Z,10.2571
2023-05-23T11:27:56.248Z,9.2500
2023-05-23T11:29:04.471Z,9.5214
2023-05-23T11:30:12.716Z,9.8714
2023-05-23T11:31:20.619Z,9.8286
2023-05-23T11:32:28.787Z,9.8857
2023-05-23T11:33:36.699Z,10.5929
2023-05-23T11:34:44.815Z,10.7286
2023-05-23T11:35:52.698Z,36.6214
2023-05-23T11:37:00.844Z,41.4571
2023-05-23T11:38:09.059Z,43.8786
2023-05-23T11:39:17.000Z,35.8357
2023-05-23T11:40:25.120Z,39.3786
2023-05-23T11:41:33.170Z,20.9214
2023-05-23T11:42:41.217Z,12.2929
2023-05-23T11:43:49.246Z,11.4714
2023-05-23T11:44:57.463Z,10.9929
2023-05-23T11:46:05.467Z,10.4929
2023-05-23T11:47:13.448Z,17.0143
2023-05-23T11:48:21.512Z,48.2286
2023-05-23T11:49:29.717Z,40.6714
2023-05-23T11:50:37.559Z,40.8857
2023-05-23T11:51:45.740Z,16.9857
2023-05-23T11:52:53.809Z,12.0429
2023-05-23T11:54:01.926Z,10.4714
2023-05-23T11:55:09.801Z,13.9500
2023-05-23T11:56:18.101Z,12.7000
2023-05-23T11:57:26.140Z,12.2000
2023-05-23T11:58:34.149Z,12.7643
2023-05-23T11:59:42.261Z,12.1500
2023-05-23T12:00:50.798Z,11.1714
2023-05-23T12:01:58.341Z,11.4786
2023-05-23T12:03:06.483Z,11.2143
2023-05-23T12:04:14.514Z,11.6500
2023-05-23T12:05:22.618Z,11.5857
2023-05-23T12:06:30.606Z,12.1071
2023-05-23T12:07:38.651Z,13.1714
2023-05-23T12:08:46.702Z,17.2714
2023-05-23T12:09:54.800Z,23.0714
2023-05-23T12:11:02.904Z,22.5429
2023-05-23T12:12:11.039Z,16.1786
2023-05-23T12:13:18.935Z,14.1286
2023-05-23T12:14:27.207Z,18.4357
2023-05-23T12:15:35.080Z,16.6143
2023-05-23T12:16:43.274Z,16.5143
2023-05-23T12:17:51.234Z,17.7857
2023-05-23T12:18:59.229Z,23.8429
2023-05-23T12:20:07.352Z,26.9500
2023-05-23T12:21:15.384Z,20.6857
2023-05-23T12:22:23.358Z,18.5143
2023-05-23T12:23:34.503Z,21.2571
2023-05-23T12:24:44.304Z,19.6533
2023-05-23T12:25:52.562Z,18.9214
2023-05-23T12:27:00.556Z,26.7643
2023-05-23T12:28:08.601Z,42.6786
2023-05-23T12:29:16.559Z,36.0357
2023-05-23T12:30:24.680Z,35.4929
2023-05-23T12:31:32.986Z,43.9571
2023-05-23T12:32:41.191Z,50.0214
2023-05-23T12:33:49.792Z,47.3214
2023-05-23T12:34:57.122Z,39.5500
2023-05-23T12:36:05.299Z,39.1286
2023-05-23T12:37:19.428Z,77.3286
2023-05-23T12:38:26.089Z,45.5143
2023-05-23T12:39:34.003Z,41.1714
2023-05-23T12:40:42.160Z,25.8786
2023-05-23T12:41:50.277Z,36.4143
2023-05-23T12:42:58.165Z,48.4500
2023-05-23T12:44:06.358Z,50.6643
2023-05-23T12:45:14.639Z,37.9786
2023-05-23T12:46:22.745Z,24.3357
2023-05-23T12:47:30.671Z,37.2357
2023-05-23T12:48:38.565Z,66.7714
2023-05-23T12:49:46.668Z,42.5714
2023-05-23T12:50:54.644Z,67.6500
2023-05-23T12:52:02.778Z,79.3214
2023-05-23T12:53:10.958Z,23.5429
2023-05-23T12:54:19.089Z,16.1071
2023-05-23T12:55:27.029Z,14.5071
2023-05-23T12:56:35.048Z,22.8571
2023-05-23T12:57:43.193Z,46.5643
2023-05-23T12:58:51.321Z,32.2071
2023-05-23T12:59:59.337Z,19.7000
2023-05-23T13:01:07.430Z,25.4143
2023-05-23T13:02:15.506Z,27.9857
2023-05-23T13:03:23.760Z,32.8143
2023-05-23T13:04:32.615Z,22.4643
2023-05-23T13:05:40.235Z,34.4500
2023-05-23T13:06:47.732Z,43.4357
2023-05-23T13:07:55.766Z,47.5000
2023-05-23T13:09:03.707Z,48.3214
2023-05-23T13:10:12.028Z,29.4357
2023-05-23T13:11:19.890Z,28.4929
2023-05-23T13:12:28.106Z,26.9071
2023-05-23T13:13:36.237Z,37.7143
2023-05-23T13:14:44.255Z,33.6714
2023-05-23T13:15:52.323Z,17.2929
2023-05-23T13:17:00.745Z,15.2000
2023-05-23T13:18:08.443Z,14.5857
2023-05-23T13:19:16.482Z,14.5286
2023-05-23T13:20:24.594Z,15.8571
2023-05-23T13:21:32.589Z,15.6714
2023-05-23T13:22:40.508Z,37.7500
2023-05-23T13:23:48.845Z,46.6000
2023-05-23T13:24:56.811Z,56.4143
2023-05-23T13:26:04.875Z,60.6572
2023-05-23T13:27:12.999Z,49.5214
2023-05-23T13:28:20.961Z,25.3429
2023-05-23T13:29:29.014Z,18.4857
2023-05-23T13:30:36.966Z,15.3571
2023-05-23T13:31:45.324Z,11.5000
2023-05-23T13:32:53.300Z,11.6857
2023-05-23T13:34:01.333Z,10.6929
2023-05-23T13:35:09.345Z,10.0571
2023-05-23T13:36:17.408Z,10.0857
2023-05-23T13:37:25.505Z,13.6643
2023-05-23T13:38:33.676Z,12.5357
2023-05-23T13:39:41.729Z,9.8714
2023-05-23T13:40:51.362Z,9.7786
2023-05-23T13:41:57.767Z,9.3571
2023-05-23T13:43:05.772Z,9.8929
2023-05-23T13:44:13.938Z,9.8786
2023-05-23T13:45:21.999Z,9.6500
2023-05-23T13:46:30.050Z,9.9714
2023-05-23T13:47:38.098Z,9.7643
2023-05-23T13:48:45.979Z,10.1786
2023-05-23T13:49:54.202Z,10.5786
2023-05-23T13:51:02.410Z,11.5786
2023-05-23T13:52:10.125Z,12.1214
2023-05-23T13:53:18.381Z,11.1071
2023-05-23T13:54:26.468Z,11.5929
2023-05-23T13:55:34.505Z,11.9214